Zhigulevsk, Russia
Current Conditions -  °F | °C
As of 1:30 AM on Wednesday 26 Nov 2014 (Local Time) from UWWW Reporting Station
Clear Clear  
Wind Chill: -5°   Ceiling: Unl
Heat Index:   Visibility: 6mi
Dew Point:   Wind: 7mph
Humidity: 79%   Direction: 230°SW
Pressure: 30.56"   Gusts: NA
Location:  53.35°N, 49.79°E
Report Text: UWWW 252130Z 23003MPS CAVOK M14/M17 Q1035 23450347 15//99//NOSIG RMK QFE765/1020
Loading
Personal Weather Stations






























Interactive Weather Map New forecast layout! Learn more

10-Day Weather Forecast

Advertisements
Track Severe Weather on mobile